Beverly Manor, Illinois
Current Conditions -  °F | °C
As of 3:54 AM on Monday 22 Dec 2014 (Local Time) from KPIA Reporting Station
Light Rain Light Rain  
Wind Chill: 31°   Ceiling: 2600
Heat Index: 37°   Visibility: 4mi
Dew Point: 31°   Wind: 8mph
Humidity: 79%   Direction: 150°SSE
Pressure: 29.9"   Gusts: NA
Location:  40.703°N, 89.4173°W
Report Text: KPIA 220954Z 15007KT 4SM -RA FEW021 BKN026 OVC039 03/M01 A2990 RMK AO2 RAE0858B36 SLP129 P0000 T00281006
Loading
Personal Weather Stations






























Interactive Weather Map New forecast layout! Learn more

10-Day Weather Forecast

Advertisements
Track Severe Weather on mobile